Time;durP1;ratioP1;P1;durP2;ratioP2;P2;SDS_P1;SDS_P2;PMS_P1;PMS_P2;Temp;Humidity;BMP_temperature;BMP_pressure;BME280_temperature;BME280_humidity;BME280_pressure;Samples;Min_cycle;Max_cycle;Signal;HPM_P1;HPM_P2
2023/04/22 00:00:19;;;;;;;9.57;6.00;;;;;10.10;95856.00;;;;8277959;28;20647;-73
2023/04/22 00:04:23;;;;;;;9.82;5.75;;;;;9.70;95854.00;;;;8273754;28;20285;-73
2023/04/22 00:08:29;;;;;;;12.88;7.20;;;;;9.50;95859.00;;;;8281629;28;20190;-72
2023/04/22 00:12:33;;;;;;;14.73;6.63;;;;;9.20;95855.00;;;;8274808;28;20198;-72
2023/04/22 00:16:36;;;;;;;11.00;6.07;;;;;8.90;95851.00;;;;8270367;28;20257;-73
2023/04/22 00:20:43;;;;;;;9.93;5.77;;;;;8.80;95846.00;;;;8270649;28;20234;-72
2023/04/22 00:24:46;;;;;;;16.40;6.03;;;;;8.80;95848.00;;;;8279342;28;20234;-71
2023/04/22 00:28:50;;;;;;;11.67;6.90;;;;;8.60;95848.00;;;;8274146;28;20202;-72
2023/04/22 00:32:55;;;;;;;10.80;6.47;;;;;8.50;95839.00;;;;8270446;28;20655;-72
2023/04/22 00:37:00;;;;;;;12.50;7.07;;;;;8.40;95846.00;;;;8274874;28;20194;-72
2023/04/22 00:41:08;;;;;;;14.93;6.83;;;;;8.40;95851.00;;;;8278786;28;20285;-72
2023/04/22 00:45:16;;;;;;;10.60;6.10;;;;;8.30;95850.00;;;;8275134;28;20261;-72
2023/04/22 00:49:25;;;;;;;9.40;6.17;;;;;8.20;95856.00;;;;8272532;28;20194;-71
2023/04/22 00:53:31;;;;;;;10.13;6.00;;;;;8.10;95849.00;;;;8273193;28;20191;-72
2023/04/22 00:57:37;;;;;;;7.23;5.57;;;;;7.90;95851.00;;;;8279770;28;20261;-72
2023/04/22 01:01:44;;;;;;;8.80;5.77;;;;;7.80;95845.00;;;;8266084;28;20238;-71
2023/04/22 01:05:51;;;;;;;14.73;6.80;;;;;7.70;95839.00;;;;8271888;28;20284;-71
2023/04/22 01:09:59;;;;;;;13.83;7.37;;;;;7.60;95837.00;;;;8284001;28;20206;-71
2023/04/22 01:14:05;;;;;;;14.97;8.27;;;;;7.70;95846.00;;;;8284457;28;20290;-72
2023/04/22 01:18:08;;;;;;;13.83;7.30;;;;;7.90;95847.00;;;;8281885;28;20226;-72
2023/04/22 01:22:17;;;;;;;16.43;7.33;;;;;8.00;95853.00;;;;8283666;28;20280;-72
2023/04/22 01:26:23;;;;;;;13.13;7.10;;;;;8.00;95857.00;;;;8279793;28;20233;-71
2023/04/22 01:30:29;;;;;;;14.97;7.00;;;;;8.00;95861.00;;;;8284412;28;20202;-71
2023/04/22 01:34:33;;;;;;;9.00;6.13;;;;;7.90;95855.00;;;;8281210;28;20206;-72
2023/04/22 01:38:37;;;;;;;10.33;6.73;;;;;7.80;95848.00;;;;8286776;28;20702;-72
2023/04/22 01:42:44;;;;;;;16.53;6.23;;;;;7.70;95860.00;;;;8289469;28;20205;-71
2023/04/22 01:46:47;;;;;;;8.53;5.80;;;;;7.50;95850.00;;;;8286779;28;20202;-72
2023/04/22 01:50:50;;;;;;;9.67;6.40;;;;;7.40;95854.00;;;;8287995;28;20500;-72
2023/04/22 01:54:54;;;;;;;12.00;6.63;;;;;7.30;95854.00;;;;8286544;28;20209;-72
2023/04/22 01:58:58;;;;;;;13.27;7.80;;;;;7.40;95852.00;;;;8268999;28;20222;-72
2023/04/22 02:03:05;;;;;;;10.47;7.47;;;;;7.60;95847.00;;;;8280230;28;20876;-72
2023/04/22 02:07:11;;;;;;;13.27;7.43;;;;;7.80;95852.00;;;;8286245;28;20198;-73
2023/04/22 02:11:14;;;;;;;14.43;7.33;;;;;8.20;95857.00;;;;8284831;28;20225;-72
2023/04/22 02:15:23;;;;;;;10.00;6.73;;;;;8.50;95853.00;;;;8283039;28;20257;-71
2023/04/22 02:19:26;;;;;;;10.00;6.53;;;;;8.70;95846.00;;;;8291616;28;20272;-72
2023/04/22 02:23:29;;;;;;;15.20;6.83;;;;;8.80;95845.00;;;;8264372;28;20222;-71
2023/04/22 02:27:32;;;;;;;11.30;6.10;;;;;8.90;95847.00;;;;8282419;28;20201;-71
2023/04/22 02:31:37;;;;;;;15.07;6.00;;;;;8.80;95843.00;;;;8276620;28;20552;-71
2023/04/22 02:35:40;;;;;;;13.47;6.53;;;;;8.90;95839.00;;;;8285549;28;20206;-72
2023/04/22 02:39:45;;;;;;;12.40;6.00;;;;;9.20;95849.00;;;;8285553;28;20737;-72
2023/04/22 02:43:50;;;;;;;12.52;6.22;;;;;9.30;95845.00;;;;8282324;28;20233;-72
2023/04/22 02:48:00;;;;;;;10.27;5.80;;;;;9.10;95845.00;;;;8282952;28;20206;-72
2023/04/22 02:52:04;;;;;;;12.40;5.90;;;;;8.90;95845.00;;;;8275770;28;20258;-72
2023/04/22 02:56:08;;;;;;;10.70;6.10;;;;;8.70;95844.00;;;;8278867;28;20194;-72
2023/04/22 03:00:14;;;;;;;10.03;5.87;;;;;8.50;95847.00;;;;8285284;28;20237;-72
2023/04/22 03:04:20;;;;;;;9.00;6.50;;;;;8.30;95839.00;;;;8379243;22;20231;-72
2023/04/22 03:08:24;;;;;;;14.10;6.53;;;;;8.10;95846.00;;;;8385296;28;20192;-72
2023/04/22 03:12:27;;;;;;;13.73;6.80;;;;;8.10;95844.00;;;;8375857;28;20705;-71
2023/04/22 03:16:30;;;;;;;14.87;6.50;;;;;8.30;95838.00;;;;8383271;28;20200;-71
2023/04/22 03:20:35;;;;;;;10.00;6.57;;;;;8.60;95838.00;;;;8387682;28;20250;-72
2023/04/22 03:24:41;;;;;;;9.43;5.53;;;;;8.80;95830.00;;;;8379603;28;20611;-72
2023/04/22 03:28:47;;;;;;;13.50;5.85;;;;;9.10;95842.00;;;;8383052;28;20196;-72
2023/04/22 03:32:52;;;;;;;7.30;5.03;;;;;9.10;95837.00;;;;8387186;28;20204;-72
2023/04/22 03:36:57;;;;;;;13.23;5.93;;;;;8.90;95842.00;;;;8386302;28;20571;-72
2023/04/22 03:41:00;;;;;;;12.25;6.03;;;;;8.70;95840.00;;;;8387828;28;20646;-72
2023/04/22 03:45:06;;;;;;;11.97;6.47;;;;;8.50;95841.00;;;;8384540;28;20214;-72
2023/04/22 03:49:12;;;;;;;10.43;5.97;;;;;8.50;95838.00;;;;8384872;28;20801;-72
2023/04/22 03:53:19;;;;;;;15.43;5.97;;;;;8.40;95837.00;;;;8383586;28;20791;-72
2023/04/22 03:57:23;;;;;;;10.73;6.03;;;;;8.30;95841.00;;;;8386583;28;20679;-73
2023/04/22 04:01:26;;;;;;;15.50;6.10;;;;;8.10;95845.00;;;;8377963;28;20223;-72
2023/04/22 04:05:29;;;;;;;10.90;6.47;;;;;8.00;95847.00;;;;8321264;28;20336;-72
2023/04/22 04:09:36;;;;;;;15.43;6.27;;;;;7.90;95842.00;;;;8325315;28;20254;-72
2023/04/22 04:13:40;;;;;;;16.97;6.87;;;;;7.70;95842.00;;;;8336214;28;20205;-71
2023/04/22 04:17:43;;;;;;;12.40;6.23;;;;;7.70;95838.00;;;;8329077;28;20236;-72
2023/04/22 04:21:47;;;;;;;19.57;8.90;;;;;7.80;95836.00;;;;8331729;28;20358;-73
2023/04/22 04:25:51;;;;;;;15.63;7.17;;;;;8.00;95838.00;;;;8339817;28;20273;-73
2023/04/22 04:29:54;;;;;;;13.27;6.57;;;;;8.00;95843.00;;;;8329424;28;20245;-73
2023/04/22 04:33:58;;;;;;;13.97;7.13;;;;;7.80;95847.00;;;;8336571;28;20247;-73
2023/04/22 04:38:01;;;;;;;16.83;6.80;;;;;7.70;95846.00;;;;8320840;28;20534;-73
2023/04/22 04:42:06;;;;;;;14.87;7.13;;;;;7.50;95837.00;;;;8320058;28;20298;-72
2023/04/22 04:46:09;;;;;;;11.30;6.27;;;;;7.50;95841.00;;;;8332901;28;20193;-73
2023/04/22 04:50:13;;;;;;;12.83;7.23;;;;;7.40;95843.00;;;;8331197;28;20236;-73
2023/04/22 04:54:20;;;;;;;15.63;8.43;;;;;7.30;95839.00;;;;8340979;28;20196;-72
2023/04/22 04:58:29;;;;;;;11.47;7.30;;;;;7.20;95834.00;;;;8330364;28;20201;-73
2023/04/22 05:02:35;;;;;;;16.57;8.47;;;;;7.20;95838.00;;;;8332571;28;20319;-72
2023/04/22 05:06:42;;;;;;;16.63;7.30;;;;;7.20;95833.00;;;;8309700;28;20638;-73
2023/04/22 05:10:45;;;;;;;18.40;8.77;;;;;7.10;95843.00;;;;8315222;28;20292;-72
2023/04/22 05:14:53;;;;;;;13.37;7.80;;;;;7.30;95848.00;;;;8324420;28;20201;-72
2023/04/22 05:18:56;;;;;;;15.60;7.60;;;;;7.40;95835.00;;;;8326791;28;20197;-72
2023/04/22 05:22:59;;;;;;;20.20;8.40;;;;;7.70;95841.00;;;;8330435;28;20609;-72
2023/04/22 05:27:02;;;;;;;18.43;8.27;;;;;8.00;95849.00;;;;8324032;28;20872;-72
2023/04/22 05:31:10;;;;;;;13.80;7.67;;;;;8.20;95853.00;;;;8328960;28;20197;-72
2023/04/22 05:35:14;;;;;;;15.47;7.50;;;;;8.40;95847.00;;;;8322055;28;20693;-72
2023/04/22 05:39:17;;;;;;;15.83;8.07;;;;;8.60;95854.00;;;;8319200;28;20206;-72
2023/04/22 05:43:20;;;;;;;13.20;6.77;;;;;8.80;95856.00;;;;8323708;28;20278;-73
2023/04/22 05:47:25;;;;;;;13.50;6.73;;;;;9.00;95863.00;;;;8337667;28;20226;-72
2023/04/22 05:51:34;;;;;;;10.50;6.40;;;;;9.20;95866.00;;;;8331145;28;20193;-73
2023/04/22 05:55:39;;;;;;;12.30;6.83;;;;;9.40;95862.00;;;;8320553;28;20198;-72
2023/04/22 05:59:45;;;;;;;10.90;6.77;;;;;9.70;95868.00;;;;8325019;28;20686;-72
2023/04/22 06:03:49;;;;;;;9.77;6.40;;;;;10.00;95868.00;;;;8321547;28;20229;-72
2023/04/22 06:07:56;;;;;;;8.73;5.77;;;;;10.30;95871.00;;;;8333350;28;20205;-72
2023/04/22 06:12:00;;;;;;;13.90;6.27;;;;;10.80;95877.00;;;;8334886;28;20228;-71
2023/04/22 06:16:04;;;;;;;13.45;6.40;;;;;11.30;95878.00;;;;8324551;28;20205;-72
2023/04/22 06:20:12;;;;;;;12.52;6.28;;;;;11.70;95884.00;;;;8323911;28;20232;-72
2023/04/22 06:24:15;;;;;;;8.65;4.80;;;;;12.00;95885.00;;;;8327187;28;20199;-72
2023/04/22 06:28:19;;;;;;;8.95;4.60;;;;;12.40;95890.00;;;;8339897;28;20206;-72
2023/04/22 06:32:22;;;;;;;47.95;7.38;;;;;12.80;95892.00;;;;8343177;28;20198;-72
2023/04/22 06:36:28;;;;;;;11.07;4.45;;;;;13.20;95902.00;;;;8334351;28;20197;-72
2023/04/22 06:40:34;;;;;;;11.65;4.50;;;;;13.60;95888.00;;;;8338030;28;20351;-72
2023/04/22 06:44:38;;;;;;;7.72;4.47;;;;;14.00;95901.00;;;;8329030;28;20720;-72
2023/04/22 06:48:41;;;;;;;11.98;4.88;;;;;14.30;95909.00;;;;8337432;28;20209;-72
2023/04/22 06:52:47;;;;;;;7.28;4.30;;;;;14.60;95904.00;;;;8328966;28;20266;-73
2023/04/22 06:56:50;;;;;;;6.68;4.20;;;;;15.00;95906.00;;;;8337250;28;20232;-72
2023/04/22 07:00:53;;;;;;;10.20;4.35;;;;;15.30;95910.00;;;;8334100;28;20232;-73
2023/04/22 07:04:57;;;;;;;5.43;3.72;;;;;15.60;95904.00;;;;8337187;28;20217;-72
2023/04/22 07:09:01;;;;;;;8.10;3.78;;;;;15.80;95908.00;;;;8333330;28;20227;-73
2023/04/22 07:13:05;;;;;;;8.27;4.30;;;;;16.10;95909.00;;;;8332184;28;20241;-72
2023/04/22 07:17:08;;;;;;;7.28;4.07;;;;;16.30;95909.00;;;;8338517;28;20712;-72
2023/04/22 07:21:12;;;;;;;6.68;4.30;;;;;16.90;95896.00;;;;8321291;28;20287;-72
2023/04/22 07:25:16;;;;;;;9.88;4.10;;;;;17.80;95908.00;;;;8336169;28;20262;-73
2023/04/22 07:29:20;;;;;;;6.45;4.20;;;;;18.60;95905.00;;;;8338008;28;20248;-72
2023/04/22 07:33:31;;;;;;;8.52;3.95;;;;;18.70;95897.00;;;;8316124;28;20201;-72
2023/04/22 07:37:35;;;;;;;5.70;4.20;;;;;18.90;95888.00;;;;8314497;28;20232;-73
2023/04/22 07:41:39;;;;;;;6.95;4.32;;;;;19.30;95892.00;;;;8318510;28;20893;-72
2023/04/22 07:45:42;;;;;;;7.07;4.43;;;;;19.20;95885.00;;;;8315785;28;20203;-72
2023/04/22 07:49:48;;;;;;;10.00;3.80;;;;;19.10;95893.00;;;;8324541;28;20240;-73
2023/04/22 07:53:53;;;;;;;6.70;4.55;;;;;18.90;95889.00;;;;8336691;28;20558;-73
2023/04/22 07:57:59;;;;;;;8.63;4.07;;;;;18.90;95888.00;;;;8325242;28;20201;-73
2023/04/22 08:02:08;;;;;;;12.00;4.30;;;;;19.10;95893.00;;;;8320747;28;20247;-72
2023/04/22 08:06:19;;;;;;;7.28;4.40;;;;;19.40;95897.00;;;;8338441;28;20189;-73
2023/04/22 08:10:22;;;;;;;7.68;4.68;;;;;19.80;95895.00;;;;8326507;28;20206;-74
2023/04/22 08:14:27;;;;;;;8.60;4.25;;;;;20.60;95899.00;;;;8316123;28;20396;-72
2023/04/22 08:18:33;;;;;;;5.95;4.28;;;;;21.40;95894.00;;;;8339924;28;20262;-71
2023/04/22 08:22:37;;;;;;;9.43;4.40;;;;;21.90;95899.00;;;;8338071;28;20229;-72
2023/04/22 08:26:43;;;;;;;6.75;4.00;;;;;22.00;95891.00;;;;8334640;28;20702;-74
2023/04/22 08:30:52;;;;;;;6.28;3.90;;;;;22.20;95902.00;;;;8327333;28;20902;-72
2023/04/22 08:34:59;;;;;;;5.57;4.35;;;;;22.50;95900.00;;;;8325735;28;20659;-72
2023/04/22 08:39:08;;;;;;;6.53;3.63;;;;;22.80;95903.00;;;;8336650;28;20209;-71
2023/04/22 08:43:12;;;;;;;7.60;3.80;;;;;23.00;95908.00;;;;8328657;28;20261;-73
2023/04/22 08:47:20;;;;;;;5.28;3.53;;;;;23.30;95907.00;;;;8333343;28;20196;-72
2023/04/22 08:51:24;;;;;;;4.82;3.90;;;;;23.70;95906.00;;;;8330223;28;20281;-73
2023/04/22 08:55:27;;;;;;;7.53;4.03;;;;;24.00;95905.00;;;;8329882;28;20240;-73
2023/04/22 08:59:31;;;;;;;8.05;4.15;;;;;24.20;95915.00;;;;8329398;28;20683;-72
2023/04/22 09:03:38;;;;;;;6.40;3.70;;;;;24.20;95916.00;;;;8319524;28;20232;-72
2023/04/22 09:07:42;;;;;;;7.72;3.45;;;;;24.40;95914.00;;;;8339498;28;20201;-72
2023/04/22 09:11:49;;;;;;;6.82;3.78;;;;;24.40;95909.00;;;;8329744;28;20258;-73
2023/04/22 09:15:54;;;;;;;6.40;3.83;;;;;24.20;95905.00;;;;8332430;28;20824;-73
2023/04/22 09:20:03;;;;;;;4.70;3.63;;;;;24.40;95909.00;;;;8331764;28;20712;-73
2023/04/22 09:24:11;;;;;;;4.32;3.92;;;;;24.70;95912.00;;;;8329581;28;20270;-74
2023/04/22 09:28:19;;;;;;;7.20;4.05;;;;;25.00;95903.00;;;;8335555;28;20224;-72
2023/04/22 09:32:28;;;;;;;4.90;3.63;;;;;25.50;95904.00;;;;8332743;28;20201;-73
2023/04/22 09:36:36;;;;;;;8.25;4.22;;;;;25.60;95904.00;;;;8331611;28;20220;-73
2023/04/22 09:40:47;;;;;;;4.75;3.53;;;;;26.10;95902.00;;;;8337614;28;20197;-74
2023/04/22 09:44:52;;;;;;;5.57;4.03;;;;;26.50;95898.00;;;;8332333;28;20205;-74
2023/04/22 09:48:57;;;;;;;4.93;3.60;;;;;26.60;95898.00;;;;8330419;28;20232;-73
2023/04/22 09:53:04;;;;;;;4.55;3.72;;;;;27.00;95901.00;;;;8336064;28;20197;-74
2023/04/22 09:57:15;;;;;;;6.88;3.65;;;;;27.30;95899.00;;;;8331915;28;20205;-73
2023/04/22 10:01:23;;;;;;;5.30;3.25;;;;;27.40;95898.00;;;;8330144;28;20625;-72
2023/04/22 10:05:28;;;;;;;5.07;4.00;;;;;27.60;95890.00;;;;8328243;28;20571;-73
2023/04/22 10:09:38;;;;;;;6.45;3.78;;;;;27.50;95879.00;;;;8309534;28;20606;-75
2023/04/22 10:13:46;;;;;;;7.38;3.65;;;;;27.60;95878.00;;;;8323552;28;20213;-73
2023/04/22 10:17:54;;;;;;;4.50;3.55;;;;;27.50;95875.00;;;;8324080;28;20259;-73
2023/04/22 10:22:00;;;;;;;6.40;3.67;;;;;27.60;95873.00;;;;8327282;28;20639;-71
2023/04/22 10:26:06;;;;;;;5.28;3.58;;;;;27.70;95863.00;;;;8328301;28;20612;-74
2023/04/22 10:30:10;;;;;;;3.67;2.88;;;;;28.00;95867.00;;;;8335802;28;20258;-73
2023/04/22 10:34:18;;;;;;;5.72;3.60;;;;;27.60;95868.00;;;;8327987;28;20207;-74
2023/04/22 10:38:23;;;;;;;5.50;3.85;;;;;27.70;95864.00;;;;8324207;28;20198;-73
2023/04/22 10:42:28;;;;;;;5.88;3.53;;;;;27.70;95861.00;;;;8327650;28;20218;-77
2023/04/22 10:47:00;;;;;;;13.07;6.70;;;;;28.00;95863.00;;;;8324563;28;20867;-77
2023/04/22 10:51:39;;;;;;;10.70;6.78;;;;;28.40;95857.00;;;;8322581;28;20263;-76
2023/04/22 10:55:50;;;;;;;11.50;7.32;;;;;28.70;95864.00;;;;8322143;28;20213;-76
2023/04/22 10:59:59;;;;;;;24.58;14.98;;;;;28.80;95853.00;;;;8335299;28;20260;-75
2023/04/22 11:04:21;;;;;;;4.35;3.80;;;;;28.90;95848.00;;;;8327155;28;20227;-76
2023/04/22 11:08:31;;;;;;;4.60;3.58;;;;;28.50;95847.00;;;;8326974;28;20574;-75
2023/04/22 11:12:49;;;;;;;4.68;3.30;;;;;28.00;95851.00;;;;8324103;28;20208;-75
2023/04/22 11:16:56;;;;;;;4.35;3.10;;;;;27.90;95850.00;;;;8328973;28;20189;-75
2023/04/22 11:21:07;;;;;;;3.40;3.05;;;;;27.80;95859.00;;;;8322112;28;20228;-74
2023/04/22 11:25:12;;;;;;;7.47;3.35;;;;;28.10;95852.00;;;;8317474;28;20224;-74
2023/04/22 11:29:15;;;;;;;3.42;3.03;;;;;28.40;95849.00;;;;8323590;28;20427;-75
2023/04/22 11:33:28;;;;;;;4.80;3.28;;;;;28.80;95834.00;;;;8327507;28;20243;-75
2023/04/22 11:37:31;;;;;;;4.70;2.95;;;;;29.40;95840.00;;;;8322138;28;20202;-75
2023/04/22 11:41:34;;;;;;;4.13;2.53;;;;;29.80;95842.00;;;;8322878;28;20225;-74
2023/04/22 11:45:38;;;;;;;4.78;2.60;;;;;30.10;95841.00;;;;8320085;28;20246;-74
2023/04/22 11:49:58;;;;;;;3.95;2.90;;;;;29.70;95836.00;;;;8318916;28;20201;-72
2023/04/22 11:54:01;;;;;;;5.18;2.60;;;;;29.50;95836.00;;;;8321231;28;20206;-74
2023/04/22 11:58:07;;;;;;;4.22;2.72;;;;;29.00;95827.00;;;;8323644;28;20201;-75
2023/04/22 12:02:10;;;;;;;5.35;3.00;;;;;28.20;95832.00;;;;8323119;28;20678;-73
2023/04/22 12:06:16;;;;;;;7.20;3.00;;;;;27.50;95833.00;;;;8307295;28;20784;-75
2023/04/22 12:10:19;;;;;;;6.80;2.88;;;;;27.20;95840.00;;;;8323030;28;20201;-74
2023/04/22 12:14:32;;;;;;;3.97;2.58;;;;;27.00;95833.00;;;;8331994;28;20262;-73
2023/04/22 12:18:36;;;;;;;5.68;2.63;;;;;26.80;95829.00;;;;8321907;28;20241;-73
2023/04/22 12:22:45;;;;;;;4.95;2.97;;;;;26.70;95825.00;;;;8320711;28;20233;-74
2023/04/22 12:26:51;;;;;;;2.92;2.42;;;;;26.50;95828.00;;;;8329918;28;20197;-73
2023/04/22 12:30:54;;;;;;;4.38;2.60;;;;;26.50;95811.00;;;;8318039;28;20228;-73
2023/04/22 12:35:03;;;;;;;3.15;2.20;;;;;26.30;95815.00;;;;8325790;28;20197;-74
2023/04/22 12:39:11;;;;;;;4.20;2.60;;;;;26.40;95807.00;;;;8315483;28;20198;-70
2023/04/22 12:43:18;;;;;;;4.43;2.90;;;;;26.50;95814.00;;;;8326868;28;20283;-69
2023/04/22 12:47:34;;;;;;;5.03;2.63;;;;;26.70;95811.00;;;;8328600;28;20189;-71
2023/04/22 12:51:39;;;;;;;3.17;2.78;;;;;26.80;95804.00;;;;8338239;28;20205;-71
2023/04/22 12:55:44;;;;;;;3.38;2.60;;;;;27.00;95803.00;;;;8330324;28;20193;-71
2023/04/22 12:59:48;;;;;;;2.60;2.40;;;;;27.20;95797.00;;;;8334891;28;20555;-71
2023/04/22 13:03:51;;;;;;;7.00;2.42;;;;;27.30;95790.00;;;;8322774;28;20233;-71
2023/04/22 13:07:57;;;;;;;2.63;2.28;;;;;27.40;95791.00;;;;8343622;28;20205;-70
2023/04/22 13:12:10;;;;;;;2.65;2.40;;;;;27.20;95784.00;;;;8328474;28;20658;-71
2023/04/22 13:16:13;;;;;;;3.22;2.70;;;;;27.30;95777.00;;;;8340326;28;20193;-71
2023/04/22 13:20:16;;;;;;;3.53;2.20;;;;;27.30;95780.00;;;;8338797;28;20201;-71
2023/04/22 13:24:20;;;;;;;4.38;2.65;;;;;27.50;95770.00;;;;8341229;28;20231;-71
2023/04/22 13:28:26;;;;;;;3.60;2.30;;;;;27.70;95766.00;;;;8321661;28;20878;-70
2023/04/22 13:32:32;;;;;;;3.15;2.47;;;;;27.90;95757.00;;;;8330714;28;20609;-71
2023/04/22 13:36:38;;;;;;;2.60;2.40;;;;;28.20;95757.00;;;;8335880;28;20201;-71
2023/04/22 13:40:41;;;;;;;2.58;2.38;;;;;28.70;95755.00;;;;8334486;28;20224;-71
2023/04/22 13:44:46;;;;;;;2.55;2.22;;;;;29.40;95744.00;;;;8335606;28;20239;-71
2023/04/22 13:48:50;;;;;;;3.03;2.63;;;;;29.90;95747.00;;;;8323480;28;20209;-71
2023/04/22 13:52:55;;;;;;;3.03;2.17;;;;;29.90;95747.00;;;;8336529;28;20258;-71
2023/04/22 13:56:58;;;;;;;3.97;2.30;;;;;29.50;95738.00;;;;8331818;28;20205;-71
2023/04/22 14:01:03;;;;;;;2.35;2.15;;;;;29.10;95736.00;;;;8330274;28;20546;-71
2023/04/22 14:05:09;;;;;;;3.35;2.25;;;;;29.10;95725.00;;;;8330280;28;20232;-71
2023/04/22 14:09:16;;;;;;;2.83;2.40;;;;;29.70;95719.00;;;;8333533;28;20609;-71
2023/04/22 14:13:24;;;;;;;3.13;2.83;;;;;30.10;95716.00;;;;8337929;28;20201;-71
2023/04/22 14:17:29;;;;;;;3.28;2.58;;;;;30.20;95715.00;;;;8343054;28;20197;-69
2023/04/22 14:21:32;;;;;;;3.08;2.20;;;;;30.50;95710.00;;;;8333346;28;20200;-71
2023/04/22 14:25:35;;;;;;;2.10;2.00;;;;;30.50;95709.00;;;;8343904;28;20232;-71
2023/04/22 14:29:38;;;;;;;2.85;2.50;;;;;30.40;95706.00;;;;8331351;28;20212;-71
2023/04/22 14:33:43;;;;;;;7.18;2.58;;;;;29.50;95703.00;;;;8332440;28;20201;-72
2023/04/22 14:37:48;;;;;;;2.45;2.35;;;;;29.10;95714.00;;;;8313650;28;20711;-71
2023/04/22 14:41:57;;;;;;;3.50;2.35;;;;;29.10;95701.00;;;;8308476;28;20210;-71
2023/04/22 14:46:01;;;;;;;2.75;2.50;;;;;29.20;95708.00;;;;8343476;28;20232;-72
2023/04/22 14:50:10;;;;;;;3.38;2.60;;;;;29.20;95700.00;;;;8330098;28;20320;-71
2023/04/22 14:54:13;;;;;;;6.30;2.60;;;;;28.80;95708.00;;;;8334884;28;20647;-72
2023/04/22 14:58:18;;;;;;;2.58;2.28;;;;;28.60;95702.00;;;;8341009;28;20205;-72
2023/04/22 15:02:21;;;;;;;5.35;2.20;;;;;28.70;95703.00;;;;8336224;28;20282;-72
2023/04/22 15:06:26;;;;;;;10.07;5.93;;;;;28.70;95696.00;;;;8329542;28;20275;-71
2023/04/22 15:10:32;;;;;;;4.78;4.28;;;;;28.60;95696.00;;;;8311671;28;20200;-71
2023/04/22 15:14:38;;;;;;;3.40;3.10;;;;;28.40;95694.00;;;;8315069;28;20307;-70
2023/04/22 15:18:42;;;;;;;4.25;2.65;;;;;28.40;95693.00;;;;8321747;28;20201;-69
2023/04/22 15:22:47;;;;;;;3.20;2.60;;;;;28.60;95690.00;;;;8326993;28;20201;-69
2023/04/22 15:26:53;;;;;;;3.00;2.63;;;;;28.70;95685.00;;;;8328410;28;20250;-69
2023/04/22 15:30:56;;;;;;;4.20;3.33;;;;;28.80;95687.00;;;;8328304;28;20204;-69
2023/04/22 15:35:03;;;;;;;3.72;2.55;;;;;28.70;95686.00;;;;8324809;28;20205;-69
2023/04/22 15:39:09;;;;;;;2.85;2.47;;;;;28.60;95682.00;;;;8329568;28;20829;-69
2023/04/22 15:43:14;;;;;;;4.03;2.85;;;;;28.50;95692.00;;;;8328940;28;20854;-70
2023/04/22 15:47:23;;;;;;;6.45;4.00;;;;;28.40;95689.00;;;;8341435;28;20223;-70
2023/04/22 15:51:27;;;;;;;2.53;2.33;;;;;28.40;95698.00;;;;8331374;28;20197;-70
2023/04/22 15:55:32;;;;;;;4.82;3.13;;;;;28.50;95686.00;;;;8322355;28;20202;-71
2023/04/22 15:59:35;;;;;;;5.60;4.63;;;;;28.60;95690.00;;;;8327291;28;20205;-70
2023/04/22 16:03:40;;;;;;;5.65;2.40;;;;;28.90;95686.00;;;;8330211;28;20279;-71
2023/04/22 16:07:45;;;;;;;2.38;2.17;;;;;29.10;95688.00;;;;8330195;28;20201;-70
2023/04/22 16:11:51;;;;;;;4.13;2.88;;;;;29.40;95687.00;;;;8322168;28;20858;-70
2023/04/22 16:15:54;;;;;;;2.70;2.50;;;;;29.50;95684.00;;;;8319370;28;20197;-70
2023/04/22 16:19:59;;;;;;;4.95;4.28;;;;;29.20;95684.00;;;;8325194;28;20655;-70
2023/04/22 16:24:03;;;;;;;3.80;3.50;;;;;29.10;95686.00;;;;8331006;28;20301;-70
2023/04/22 16:28:10;;;;;;;2.92;2.70;;;;;29.10;95687.00;;;;8339323;28;20189;-70
2023/04/22 16:32:13;;;;;;;3.85;3.42;;;;;29.00;95683.00;;;;8335406;28;20209;-70
2023/04/22 16:36:18;;;;;;;3.58;2.95;;;;;28.50;95678.00;;;;8327826;28;20198;-70
2023/04/22 16:40:21;;;;;;;4.93;3.78;;;;;28.30;95685.00;;;;8309529;28;20250;-70
2023/04/22 16:44:28;;;;;;;2.88;2.63;;;;;28.00;95681.00;;;;8317489;28;20218;-69
2023/04/22 16:48:31;;;;;;;11.68;4.05;;;;;27.70;95681.00;;;;8327152;28;20197;-74
2023/04/22 16:52:39;;;;;;;4.15;3.25;;;;;27.30;95679.00;;;;8307036;28;20275;-71
2023/04/22 16:56:42;;;;;;;6.97;3.08;;;;;26.80;95677.00;;;;8328176;28;20693;-71
2023/04/22 17:00:47;;;;;;;2.80;2.60;;;;;26.50;95675.00;;;;8322858;28;20539;-70
2023/04/22 17:04:50;;;;;;;5.38;2.72;;;;;26.10;95673.00;;;;8327414;28;21102;-70
2023/04/22 17:08:54;;;;;;;4.05;2.50;;;;;25.50;95679.00;;;;8322496;28;20198;-72
2023/04/22 17:12:59;;;;;;;2.80;2.50;;;;;25.00;95667.00;;;;8341543;28;20584;-71
2023/04/22 17:17:04;;;;;;;3.60;2.72;;;;;24.40;95662.00;;;;8340142;28;20208;-71
2023/04/22 17:21:08;;;;;;;3.20;2.70;;;;;23.80;95662.00;;;;8324900;28;20247;-71
2023/04/22 17:25:11;;;;;;;3.45;2.70;;;;;23.30;95668.00;;;;8334259;28;20818;-71
2023/04/22 17:29:14;;;;;;;3.40;2.40;;;;;22.90;95666.00;;;;8330703;28;20201;-70
2023/04/22 17:33:19;;;;;;;6.50;4.63;;;;;22.60;95664.00;;;;8329029;28;20250;-71
2023/04/22 17:37:25;;;;;;;4.10;3.35;;;;;22.30;95663.00;;;;8325581;28;20185;-70
2023/04/22 17:41:28;;;;;;;26.50;16.27;;;;;22.00;95657.00;;;;8323593;28;20205;-70
2023/04/22 17:45:33;;;;;;;12.23;8.27;;;;;21.70;95658.00;;;;8322293;28;20267;-70
2023/04/22 17:49:37;;;;;;;14.88;10.45;;;;;21.40;95653.00;;;;8324307;28;20201;-70
2023/04/22 17:53:41;;;;;;;17.10;12.18;;;;;21.10;95655.00;;;;8322280;28;20201;-70
2023/04/22 17:57:45;;;;;;;10.50;9.15;;;;;20.90;95657.00;;;;8327744;28;20633;-70
2023/04/22 18:01:55;;;;;;;6.18;5.10;;;;;20.60;95662.00;;;;8326947;28;20243;-71
2023/04/22 18:06:05;;;;;;;10.73;3.70;;;;;20.40;95663.00;;;;8321355;28;20660;-71
2023/04/22 18:10:10;;;;;;;7.32;4.32;;;;;20.10;95663.00;;;;8321182;28;20197;-71
2023/04/22 18:14:13;;;;;;;9.57;4.40;;;;;19.90;95662.00;;;;8320010;28;20205;-70
2023/04/22 18:18:16;;;;;;;4.93;3.70;;;;;19.70;95663.00;;;;8330780;28;20189;-71
2023/04/22 18:22:24;;;;;;;10.85;4.53;;;;;19.50;95671.00;;;;8327783;28;20960;-71
2023/04/22 18:26:29;;;;;;;4.38;3.53;;;;;19.20;95673.00;;;;8325805;28;20224;-71
2023/04/22 18:30:33;;;;;;;6.70;4.00;;;;;19.10;95673.00;;;;8327599;28;20240;-71
2023/04/22 18:34:36;;;;;;;6.43;4.10;;;;;19.00;95666.00;;;;8330247;28;20212;-70
2023/04/22 18:38:41;;;;;;;7.30;4.82;;;;;18.70;95673.00;;;;8306662;28;20639;-71
2023/04/22 18:42:47;;;;;;;6.63;4.00;;;;;18.50;95672.00;;;;8306793;28;20288;-70
2023/04/22 18:46:51;;;;;;;7.75;3.83;;;;;18.20;95672.00;;;;8325842;28;20224;-70
2023/04/22 18:50:54;;;;;;;5.13;4.18;;;;;17.90;95672.00;;;;8333242;28;20316;-70
2023/04/22 18:54:59;;;;;;;6.03;3.65;;;;;17.60;95677.00;;;;8323790;28;20375;-70
2023/04/22 18:59:02;;;;;;;4.13;3.72;;;;;17.40;95672.00;;;;8329777;28;20763;-70
2023/04/22 19:03:06;;;;;;;5.43;4.40;;;;;17.10;95683.00;;;;8316234;28;20221;-70
2023/04/22 19:07:10;;;;;;;7.95;4.13;;;;;16.90;95683.00;;;;8321670;28;20260;-70
2023/04/22 19:11:18;;;;;;;5.50;4.88;;;;;16.80;95677.00;;;;8331439;28;20939;-70
2023/04/22 19:15:24;;;;;;;9.10;5.20;;;;;16.60;95681.00;;;;8343696;28;20201;-70
2023/04/22 19:19:30;;;;;;;8.20;5.50;;;;;16.40;95680.00;;;;8329356;28;20256;-70
2023/04/22 19:23:36;;;;;;;8.18;5.05;;;;;16.30;95687.00;;;;8346947;28;20204;-70
2023/04/22 19:27:43;;;;;;;7.85;5.80;;;;;16.10;95677.00;;;;8333673;28;20228;-70
2023/04/22 19:31:46;;;;;;;7.15;5.18;;;;;16.00;95688.00;;;;8321792;28;20231;-70
2023/04/22 19:35:49;;;;;;;11.73;5.43;;;;;15.90;95687.00;;;;8323203;28;20232;-70
2023/04/22 19:39:53;;;;;;;10.60;5.63;;;;;15.80;95686.00;;;;8324226;28;20197;-70
2023/04/22 19:43:58;;;;;;;11.13;5.40;;;;;15.70;95679.00;;;;8302989;28;20255;-70
2023/04/22 19:48:02;;;;;;;8.15;5.40;;;;;15.50;95684.00;;;;8322848;28;20225;-70
2023/04/22 19:52:07;;;;;;;12.43;6.13;;;;;15.40;95687.00;;;;8328844;28;20193;-70
2023/04/22 19:56:11;;;;;;;8.30;5.50;;;;;15.30;95690.00;;;;8321173;28;20193;-70
2023/04/22 20:00:20;;;;;;;8.77;5.68;;;;;15.30;95689.00;;;;8321770;28;20200;-70
2023/04/22 20:04:24;;;;;;;7.60;5.22;;;;;15.20;95690.00;;;;8326345;28;20332;-70
2023/04/22 20:08:28;;;;;;;10.27;6.20;;;;;15.20;95683.00;;;;8331709;28;20686;-70
2023/04/22 20:12:35;;;;;;;11.93;5.60;;;;;15.20;95677.00;;;;8327367;28;20197;-70
2023/04/22 20:16:41;;;;;;;8.20;4.93;;;;;15.10;95681.00;;;;8323516;28;20738;-70
2023/04/22 20:20:46;;;;;;;6.95;5.15;;;;;15.20;95690.00;;;;8320834;28;20212;-70
2023/04/22 20:25:02;;;;;;;6.25;4.15;;;;;15.30;95694.00;;;;8337535;28;20239;-70